Aérodrome :
LOGIN :

S'inscrire | Disclaimer

   EN    FR    IT 

 










Légende :    VFR   VFR Marginal   IFR   IFR Intensif   IFR Très Intensif
Visi : 
Plafond : 
>= 8 km
>= 3000ft
5 à 8 km
1000 à 3000 ft
1500m à 5 km
500 à 1000 ft
800 à 1500m
200 à 500 ft
< 800m
< 200 ft
Symboles :   Orages  Brouillard  Fortes neiges  Fortes précipitations  Vent > 20 kt
SIGMETs :   Divers  Orages  Givrage  Turbulence  Onde Orograph.  Cendres Volcan.






- Altitude de l'aérodrome : 120 ft
- Code IATA : MME


EGNV - Durham Tees valley

DERNIER METAR :
  • 191320Z 31006KT 9999 FEW015 SCT025 11/07 Q0997

METARs EXPIRÉS :
  • 191250Z 31008KT 280V340 9999 FEW015 SCT023 12/07 Q0997
  • 191220Z 31006KT 290V350 9999 FEW020 12/08 Q0997
  • 191150Z 34008KT 9999 FEW020 12/08 Q0997
  • 191120Z 34005KT 9999 VCSH FEW012 SCT045 11/07 Q0997
  • 191050Z 34005KT 310V010 9000 FEW010 SCT045 11/08 Q0997

TAF TAF EGNV
Valide du 19 à 12h jusqu'au 19 à 21h UTC


191101Z 1912/1921 33007KT 9999 FEW015 SCT025
PROB30
TEMPO 1912/1915 8000 -SHRA BKN014
TEMPO 1915/1921 7000 RA
PROB30
TEMPO 1915/1921 BKN012
ATIS : +44 9012 018 111



MET'MAP, la Météo Aéronautique d'un coup d'oeil ! - Copyright ORBIFLY Décembre 2007 - Disclaimer

ORBIFLY MET'MAP TEAM :

Programmation & Développement : Alexandra Zaïnal
Conception & Développement : Baudouin d'Aumeries
Co-Programmation & Développement : Marc-Olivier Méhu
Soutien technique & logistique : Manuel Goepfert

Contact : metmap@orbifly.com




SOURCES & CREDITS :

   NOAA